Detroit Metropolitan Wayne County Airport
KDTW : now visible

Airfield :











YOU CAN JOIN US ON...

 
LOGIN :

Register | Disclaimer

   EN    FR    IT 

 









Legend :    VFR   Marginal VFR   IFR   Intensive IFR   Very Intensive IFR
Visi :
Ceiling :
>= 8 km
>= 3000ft
5 to 8 km
1000 to 3000 ft
1500m to 5 km
500 to 1000 ft
800 to 1500m
200 to 500 ft
< 800m
< 200 ft
Symbols :   Thunderstorms  Fog  Heavy snow  Heavy precipitations  Wind > 20 kt






- Airport Elevation : 645 ft
- IATA code : DTW


KDTW - Detroit Metropolitan Wayne County

CURRENT METAR :
  • 201653Z 08009KT 10SM SCT030 BKN065 BKN200 11/03 A3030 RMK AO2 SLP263 T01060033

EXPIRED METARs :
  • 201553Z 08006KT 10SM SCT025 BKN065 BKN200 10/03 A3032 RMK AO2 SLP269 T01000033
  • 201453Z 02007KT 8SM FEW065 BKN200 09/03 A3030 RMK AO2 SLP264 T00890033 53016

TAF KDTW
Valid from the 20 at 15:00 until the 21 at 18:00 UTC


201506Z 2015/2118 04006KT P6SM SCT060 BKN200
FM201800 08007KT P6SM SCT035 BKN200
FM210000 11007KT P6SM SCT008 OVC025
FM210300 14012KT 4SM -RA BR SCT003 OVC005
PROB30 2103/2109 2SM -TSRA BR OVC005CB
FM211100 24011G25KT 5SM BR SCT008 BKN012
FM211600 27012G22KT P6SM SCT020
KZOB FIR / North America



MET'MAP, your aeronautical weather chart ! - Copyright ORBIFLY December 2007 - Disclaimer

ORBIFLY MET'MAP TEAM :

Programming & Development : Alexandra Zaïnal
Concept & original design : Baudouin d'Aumeries
Assistance for programming : Marc-Olivier Méhu
Technical & hardware support : Manuel Goepfert

Contact : metmap@orbifly.com




SOURCES & CREDITS :

   NOAA       Earth
Advisory